Time;durP1;ratioP1;P1;durP2;ratioP2;P2;SDS_P1;SDS_P2;PMS_P1;PMS_P2;Temp;Humidity;BMP_temperature;BMP_pressure;BME280_temperature;BME280_humidity;BME280_pressure;Samples;Min_cycle;Max_cycle;Signal;HPM_P1;HPM_P2
2022/06/17 00:00:55;;;;;;;4.25;2.53;;;18.90;1.00;;;;;;7364768;19;20018;-61
2022/06/17 00:03:27;;;;;;;3.05;2.30;;;18.90;1.00;;;;;;7364610;19;20035;-61
2022/06/17 00:06:02;;;;;;;2.33;2.05;;;18.80;1.00;;;;;;7365397;19;20035;-61
2022/06/17 00:08:37;;;;;;;3.95;2.22;;;18.80;1.00;;;;;;7355732;19;20394;-59
2022/06/17 00:11:12;;;;;;;5.25;2.25;;;18.70;1.00;;;;;;7365822;19;20020;-60
2022/06/17 00:13:43;;;;;;;9.00;2.40;;;18.70;1.00;;;;;;7385631;19;20002;-60
2022/06/17 00:16:14;;;;;;;5.50;2.13;;;18.60;1.00;;;;;;7363804;19;20014;-60
2022/06/17 00:18:45;;;;;;;3.13;2.38;;;18.60;1.00;;;;;;7357013;19;20557;-60
2022/06/17 00:21:22;;;;;;;3.35;2.30;;;18.60;1.00;;;;;;7366009;19;20086;-60
2022/06/17 00:23:52;;;;;;;3.85;2.50;;;18.60;1.00;;;;;;7364254;19;20077;-60
2022/06/17 00:26:21;;;;;;;2.78;2.45;;;18.50;1.00;;;;;;7364493;19;20046;-61
2022/06/17 00:28:51;;;;;;;5.22;2.65;;;18.50;1.00;;;;;;7381184;19;20082;-62
2022/06/17 00:31:21;;;;;;;2.75;2.20;;;18.50;1.00;;;;;;7372286;19;20035;-60
2022/06/17 00:33:51;;;;;;;2.75;2.22;;;18.40;1.00;;;;;;7371262;19;20014;-60
2022/06/17 00:36:24;;;;;;;14.40;3.28;;;18.40;1.00;;;;;;7370589;19;20021;-60
2022/06/17 00:38:54;;;;;;;7.78;3.00;;;18.40;1.00;;;;;;7363085;19;20077;-61
2022/06/17 00:41:29;;;;;;;6.97;3.10;;;18.30;1.00;;;;;;7369372;19;20509;-60
2022/06/17 00:44:01;;;;;;;5.78;2.70;;;18.30;1.00;;;;;;7371388;19;20024;-61
2022/06/17 00:46:39;;;;;;;4.65;2.47;;;18.30;1.00;;;;;;7391636;19;20023;-60
2022/06/17 00:49:16;;;;;;;4.70;2.50;;;18.30;1.00;;;;;;7363051;19;20022;-61
2022/06/17 00:51:55;;;;;;;4.13;2.22;;;18.20;1.00;;;;;;7370568;19;20014;-60
2022/06/17 00:54:28;;;;;;;4.40;3.05;;;18.30;1.00;;;;;;7371758;19;20014;-60
2022/06/17 00:56:58;;;;;;;3.50;2.30;;;18.20;1.00;;;;;;7370719;19;20010;-60
2022/06/17 00:59:28;;;;;;;4.43;2.20;;;18.10;1.00;;;;;;7363025;19;20103;-61
2022/06/17 01:02:04;;;;;;;4.32;2.40;;;18.10;1.00;;;;;;7370444;19;20014;-61
2022/06/17 01:04:37;;;;;;;2.78;2.47;;;18.00;1.00;;;;;;7394160;19;21067;-60
2022/06/17 01:07:14;;;;;;;3.80;2.35;;;17.90;1.00;;;;;;7368087;19;20801;-60
2022/06/17 01:09:58;;;;;;;2.97;2.35;;;17.90;1.00;;;;;;7363740;19;20090;-60
2022/06/17 01:12:33;;;;;;;4.50;3.00;;;17.90;1.00;;;;;;7370274;19;20010;-60
2022/06/17 01:15:04;;;;;;;5.10;2.38;;;17.80;1.00;;;;;;7370721;19;20101;-60
2022/06/17 01:17:35;;;;;;;3.47;2.40;;;17.70;1.00;;;;;;7369044;19;20006;-60
2022/06/17 01:20:08;;;;;;;4.20;2.20;;;17.70;1.00;;;;;;7363410;19;20019;-60
2022/06/17 01:22:43;;;;;;;3.03;2.60;;;17.60;1.00;;;;;;7391957;19;20016;-60
2022/06/17 01:25:16;;;;;;;3.78;2.67;;;17.70;1.00;;;;;;7370829;19;20431;-61
2022/06/17 01:27:48;;;;;;;4.47;2.40;;;17.60;1.00;;;;;;7366939;19;20520;-60
2022/06/17 01:30:20;;;;;;;6.75;2.78;;;17.60;1.00;;;;;;7365982;19;20018;-60
2022/06/17 01:32:54;;;;;;;3.20;2.63;;;17.60;1.00;;;;;;7370157;19;20054;-60
2022/06/17 01:35:28;;;;;;;5.60;2.47;;;17.60;1.00;;;;;;7370739;19;20020;-61
2022/06/17 01:38:01;;;;;;;5.07;2.40;;;17.60;1.00;;;;;;7361174;19;20355;-61
2022/06/17 01:40:31;;;;;;;3.22;2.28;;;17.60;1.00;;;;;;7388094;19;20019;-59
2022/06/17 01:43:04;;;;;;;3.40;2.55;;;17.60;1.00;;;;;;7368908;19;20029;-60
2022/06/17 01:45:35;;;;;;;6.25;2.38;;;17.60;1.00;;;;;;7369252;19;20488;-59
2022/06/17 01:48:10;;;;;;;3.05;2.30;;;17.50;1.00;;;;;;7362255;19;20002;-59
2022/06/17 01:50:41;;;;;;;3.58;2.47;;;17.50;1.00;;;;;;7368300;19;20478;-59
2022/06/17 01:53:18;;;;;;;8.55;2.53;;;17.50;1.00;;;;;;7369286;19;20009;-60
2022/06/17 01:55:51;;;;;;;4.35;2.50;;;17.40;1.00;;;;;;7390417;19;20018;-59
2022/06/17 01:58:26;;;;;;;7.22;3.60;;;17.00;1.00;;;;;;7361781;19;20010;-60
2022/06/17 02:00:56;;;;;;;9.55;3.42;;;17.10;1.00;;;;;;7369014;19;20359;-60
2022/06/17 02:03:29;;;;;;;8.38;3.03;;;17.10;1.00;;;;;;7368331;19;20503;-60
2022/06/17 02:06:09;;;;;;;5.18;2.60;;;17.20;1.00;;;;;;7368503;19;20082;-60
2022/06/17 02:08:41;;;;;;;7.00;2.85;;;17.20;1.00;;;;;;7360667;19;20015;-60
2022/06/17 02:11:11;;;;;;;3.47;2.10;;;17.10;1.00;;;;;;7368596;19;21773;-60
2022/06/17 02:13:41;;;;;;;2.92;2.25;;;17.00;1.00;;;;;;7391028;19;20018;-60
2022/06/17 02:16:12;;;;;;;3.75;2.10;;;17.10;1.00;;;;;;7367589;19;20104;-61
2022/06/17 02:18:45;;;;;;;3.20;2.15;;;17.10;1.00;;;;;;7360431;19;20010;-60
2022/06/17 02:21:18;;;;;;;3.17;2.70;;;17.20;1.00;;;;;;7368321;19;20024;-60
2022/06/17 02:23:51;;;;;;;3.40;3.10;;;17.00;1.00;;;;;;7369308;19;20010;-60
2022/06/17 02:26:22;;;;;;;3.25;2.10;;;17.00;1.00;;;;;;7368504;19;20017;-60
2022/06/17 02:28:53;;;;;;;3.05;2.20;;;17.00;1.00;;;;;;7373993;19;20006;-61
2022/06/17 02:31:24;;;;;;;5.30;2.30;;;16.90;1.00;;;;;;7390307;19;20086;-60
2022/06/17 02:33:54;;;;;;;3.92;2.20;;;16.80;1.00;;;;;;7367155;19;20090;-60
2022/06/17 02:36:41;;;;;;;3.05;2.15;;;16.80;1.00;;;;;;7366804;19;20010;-60
2022/06/17 02:39:15;;;;;;;3.35;3.05;;;16.80;1.00;;;;;;7360083;19;20011;-60
2022/06/17 02:41:46;;;;;;;6.00;3.03;;;16.90;1.00;;;;;;7367977;19;20021;-60
2022/06/17 02:44:22;;;;;;;5.55;3.08;;;16.90;1.00;;;;;;7366694;19;20014;-60
2022/06/17 02:46:56;;;;;;;4.38;2.60;;;16.90;1.00;;;;;;7378118;19;20006;-60
2022/06/17 02:49:29;;;;;;;3.40;2.28;;;16.90;1.00;;;;;;7380643;19;20051;-60
2022/06/17 02:51:59;;;;;;;8.20;2.38;;;16.80;1.00;;;;;;7364185;19;20007;-60
2022/06/17 02:54:38;;;;;;;7.32;2.75;;;16.80;1.00;;;;;;7368052;19;20007;-60
2022/06/17 02:57:11;;;;;;;3.33;2.50;;;16.80;1.00;;;;;;7367322;19;20014;-60
2022/06/17 02:59:45;;;;;;;3.42;2.17;;;16.70;1.00;;;;;;7359117;19;20551;-60
2022/06/17 03:02:21;;;;;;;3.95;2.47;;;16.70;1.00;;;;;;7368142;19;20433;-60
2022/06/17 03:04:51;;;;;;;4.03;2.40;;;16.60;1.00;;;;;;7388243;19;20022;-60
2022/06/17 03:07:24;;;;;;;3.78;2.40;;;16.60;1.00;;;;;;7365922;19;20086;-60
2022/06/17 03:09:56;;;;;;;4.63;2.03;;;16.60;1.00;;;;;;7356738;19;20014;-61
2022/06/17 03:12:28;;;;;;;3.75;2.67;;;16.60;1.00;;;;;;7367397;19;20011;-60
2022/06/17 03:15:08;;;;;;;3.70;2.53;;;16.60;1.00;;;;;;7367381;19;20070;-60
2022/06/17 03:17:41;;;;;;;3.22;2.33;;;16.60;1.00;;;;;;7367050;19;20010;-60
2022/06/17 03:20:15;;;;;;;5.10;2.40;;;16.60;1.00;;;;;;7360296;19;20014;-60
2022/06/17 03:22:49;;;;;;;4.53;2.75;;;16.60;1.00;;;;;;7386976;19;20538;-60
2022/06/17 03:25:27;;;;;;;5.40;2.80;;;16.60;1.00;;;;;;7367637;19;20186;-60
2022/06/17 03:28:00;;;;;;;4.03;2.78;;;16.60;1.00;;;;;;7361799;19;20518;-60
2022/06/17 03:30:33;;;;;;;6.68;2.60;;;16.60;1.00;;;;;;7363296;19;20010;-60
2022/06/17 03:33:08;;;;;;;3.10;2.33;;;16.60;1.00;;;;;;7365158;19;20010;-60
2022/06/17 03:35:41;;;;;;;5.68;2.58;;;16.70;1.00;;;;;;7365990;19;20020;-60
2022/06/17 03:38:24;;;;;;;4.38;2.30;;;16.90;1.00;;;;;;7359097;19;20007;-60
2022/06/17 03:41:02;;;;;;;3.78;2.50;;;17.10;1.00;;;;;;7366533;19;20010;-61
2022/06/17 03:43:38;;;;;;;2.85;2.25;;;17.90;1.00;;;;;;7386957;19;20018;-60
2022/06/17 03:46:09;;;;;;;4.65;2.30;;;18.80;1.00;;;;;;7365284;19;20007;-60
2022/06/17 03:48:46;;;;;;;4.90;2.30;;;19.20;1.00;;;;;;7357102;19;20058;-60
2022/06/17 03:51:21;;;;;;;3.17;2.25;;;18.90;1.00;;;;;;7366605;19;20471;-61
2022/06/17 03:53:52;;;;;;;4.68;2.30;;;19.70;1.00;;;;;;7365239;19;20491;-61
2022/06/17 03:56:27;;;;;;;2.30;2.00;;;19.60;1.00;;;;;;7365909;19;20014;-61
2022/06/17 03:59:00;;;;;;;4.25;2.08;;;19.20;1.00;;;;;;7357194;19;20014;-60
2022/06/17 04:01:36;;;;;;;5.32;2.30;;;19.30;1.00;;;;;;7387425;19;20101;-60
2022/06/17 04:04:13;;;;;;;2.80;2.40;;;19.20;1.00;;;;;;7370179;19;20010;-60
2022/06/17 04:06:46;;;;;;;2.40;2.03;;;19.30;1.00;;;;;;7371610;19;20014;-60
2022/06/17 04:09:19;;;;;;;4.13;2.00;;;19.30;1.00;;;;;;7364451;19;20019;-60
2022/06/17 04:11:57;;;;;;;6.97;2.13;;;19.40;1.00;;;;;;7372177;19;20029;-59
2022/06/17 04:14:30;;;;;;;3.67;2.38;;;19.80;1.00;;;;;;7372984;19;20035;-60
2022/06/17 04:17:07;;;;;;;3.28;2.13;;;20.00;1.00;;;;;;7369815;19;20057;-59
2022/06/17 04:19:37;;;;;;;3.25;2.20;;;20.60;1.00;;;;;;7385519;19;20020;-60
2022/06/17 04:22:17;;;;;;;4.07;2.30;;;19.60;1.00;;;;;;7371573;19;20014;-60
2022/06/17 04:24:51;;;;;;;5.30;2.63;;;19.40;1.00;;;;;;7371122;19;20024;-59
2022/06/17 04:27:56;;;;;;;4.15;2.50;;;19.70;1.00;;;;;;7371205;19;20020;-60
2022/06/17 04:30:18;;;;;;;4.40;2.70;;;19.60;1.00;;;;;;7366778;19;20081;-60
2022/06/17 04:32:49;;;;;;;4.07;2.85;;;19.90;1.00;;;;;;7372398;19;20006;-60
2022/06/17 04:35:19;;;;;;;4.93;2.80;;;19.30;1.00;;;;;;7372020;19;20467;-60
2022/06/17 04:37:49;;;;;;;6.72;2.75;;;19.60;1.00;;;;;;7391606;19;20017;-60
2022/06/17 04:40:26;;;;;;;4.05;2.60;;;19.70;1.00;;;;;;7367834;19;20082;-60
2022/06/17 04:43:01;;;;;;;3.90;2.65;;;20.50;1.00;;;;;;7370090;19;20070;-60
2022/06/17 04:45:32;;;;;;;4.22;2.20;;;20.30;1.00;;;;;;7371966;19;20015;-61
2022/06/17 04:48:02;;;;;;;5.05;2.50;;;20.60;1.00;;;;;;7366437;19;20340;-61
2022/06/17 04:50:33;;;;;;;5.00;2.40;;;21.00;1.00;;;;;;7367899;19;20010;-60
2022/06/17 04:53:04;;;;;;;5.20;2.60;;;21.50;1.00;;;;;;7370476;19;20042;-60
2022/06/17 04:55:41;;;;;;;3.88;2.35;;;22.20;1.00;;;;;;7393465;19;20022;-61
2022/06/17 04:58:15;;;;;;;5.28;2.55;;;22.40;1.00;;;;;;7364672;19;20082;-60
2022/06/17 05:00:48;;;;;;;4.30;2.15;;;21.00;1.00;;;;;;7370968;19;20007;-60
2022/06/17 05:03:19;;;;;;;4.38;2.22;;;22.60;1.00;;;;;;7369156;19;20014;-60
2022/06/17 05:05:49;;;;;;;2.40;1.88;;;23.10;1.00;;;;;;7369578;19;20086;-60
2022/06/17 05:08:23;;;;;;;2.58;1.90;;;22.60;1.00;;;;;;7364763;19;20097;-60
2022/06/17 05:10:57;;;;;;;2.85;1.75;;;23.30;1.00;;;;;;7379295;19;20013;-60
2022/06/17 05:13:33;;;;;;;;;;;22.20;1.00;;;;;;7391854;19;21410;-60
2022/06/17 05:16:05;;;;;;;4.00;2.10;;;23.70;1.00;;;;;;7368044;19;19998;-60
2022/06/17 05:18:35;;;;;;;3.85;1.85;;;23.70;1.00;;;;;;7361739;19;20581;-60
2022/06/17 05:21:07;;;;;;;3.40;1.88;;;23.50;1.00;;;;;;7369777;19;20596;-60
2022/06/17 05:23:37;;;;;;;3.63;2.03;;;22.90;1.00;;;;;;7369004;19;20108;-61
2022/06/17 05:26:07;;;;;;;5.68;2.10;;;23.80;1.00;;;;;;7369503;19;20025;-60
2022/06/17 05:28:39;;;;;;;4.75;2.65;;;23.10;1.00;;;;;;7383842;19;20010;-60
2022/06/17 05:31:13;;;;;;;3.55;2.40;;;23.60;1.00;;;;;;7367607;19;20015;-61
2022/06/17 05:33:43;;;;;;;3.33;2.38;;;22.70;1.00;;;;;;7368433;19;20109;-60
2022/06/17 05:36:13;;;;;;;3.65;2.10;;;23.40;1.00;;;;;;7369321;19;20010;-60
2022/06/17 05:38:43;;;;;;;3.45;1.85;;;23.70;1.00;;;;;;7362400;19;20020;-60
2022/06/17 05:41:17;;;;;;;2.65;2.00;;;24.70;1.00;;;;;;7370780;19;20149;-60
2022/06/17 05:43:50;;;;;;;4.28;2.00;;;24.00;1.00;;;;;;7390447;19;20065;-60
2022/06/17 05:46:20;;;;;;;3.97;2.05;;;23.70;1.00;;;;;;7368470;19;20014;-61
2022/06/17 05:48:50;;;;;;;4.57;2.40;;;23.80;1.00;;;;;;7360757;19;20017;-60
2022/06/17 05:51:20;;;;;;;4.20;2.10;;;23.00;1.00;;;;;;7369979;19;20014;-61
2022/06/17 05:53:49;;;;;;;4.63;2.42;;;21.40;1.00;;;;;;7367539;19;20031;-60
2022/06/17 05:56:19;;;;;;;5.38;2.47;;;21.80;1.00;;;;;;7368485;19;20510;-60
2022/06/17 05:58:52;;;;;;;3.13;2.45;;;22.20;1.00;;;;;;7382912;19;20025;-59
2022/06/17 06:01:21;;;;;;;3.30;2.20;;;21.70;1.00;;;;;;7370525;19;20086;-60
2022/06/17 06:03:51;;;;;;;5.47;2.40;;;21.30;1.00;;;;;;7368317;19;20423;-60
2022/06/17 06:06:21;;;;;;;3.53;2.03;;;20.00;1.00;;;;;;7367017;19;20010;-60
2022/06/17 06:08:51;;;;;;;6.13;2.50;;;20.20;1.00;;;;;;7361062;19;20011;-60
2022/06/17 06:11:21;;;;;;;4.63;2.50;;;20.60;1.00;;;;;;7368941;19;20013;-60
2022/06/17 06:13:53;;;;;;;5.47;2.40;;;20.20;1.00;;;;;;7389697;19;20028;-61
2022/06/17 06:16:23;;;;;;;5.43;2.63;;;20.60;1.00;;;;;;7367052;19;20006;-59
2022/06/17 06:18:53;;;;;;;5.75;2.45;;;20.80;1.00;;;;;;7357925;19;20015;-60
2022/06/17 06:21:23;;;;;;;4.57;2.38;;;21.20;1.00;;;;;;7368452;19;20009;-60
2022/06/17 06:23:56;;;;;;;3.90;2.00;;;21.30;1.00;;;;;;7369121;19;20016;-61
2022/06/17 06:26:26;;;;;;;5.05;2.30;;;21.30;1.00;;;;;;7366258;19;20006;-60
2022/06/17 06:28:59;;;;;;;4.75;2.22;;;21.30;1.00;;;;;;7358946;19;20014;-60
2022/06/17 06:31:32;;;;;;;4.68;2.38;;;21.20;1.00;;;;;;7388196;19;20022;-60
2022/06/17 06:34:02;;;;;;;3.28;2.20;;;21.00;1.00;;;;;;7365259;19;20018;-61
2022/06/17 06:36:32;;;;;;;5.43;2.63;;;20.90;1.00;;;;;;7366256;19;20021;-60
2022/06/17 06:39:02;;;;;;;3.45;2.28;;;21.10;1.00;;;;;;7359938;19;20081;-60
2022/06/17 06:41:32;;;;;;;3.65;2.00;;;22.10;1.00;;;;;;7367906;19;20494;-60
2022/06/17 06:44:05;;;;;;;3.38;2.35;;;22.30;1.00;;;;;;7366495;19;20424;-60
2022/06/17 06:46:35;;;;;;;5.07;2.42;;;21.20;1.00;;;;;;7388270;19;20025;-60
2022/06/17 06:49:05;;;;;;;4.47;2.20;;;21.80;1.00;;;;;;7359046;19;20102;-61
2022/06/17 06:51:35;;;;;;;6.22;2.50;;;21.20;1.00;;;;;;7366835;19;20466;-60
2022/06/17 06:54:05;;;;;;;2.92;2.10;;;21.40;1.00;;;;;;7366744;19;20078;-61
2022/06/17 06:56:35;;;;;;;4.28;1.80;;;21.60;1.00;;;;;;7367030;19;20374;-60
2022/06/17 06:59:08;;;;;;;3.20;2.00;;;21.60;1.00;;;;;;7359022;19;20010;-60
2022/06/17 07:01:38;;;;;;;5.45;2.10;;;21.60;1.00;;;;;;7387501;19;20021;-63
2022/06/17 07:04:08;;;;;;;5.13;1.90;;;21.50;1.00;;;;;;7366610;19;20006;-61
2022/06/17 07:06:38;;;;;;;4.43;2.20;;;21.90;1.00;;;;;;7364771;19;20386;-61
2022/06/17 07:09:08;;;;;;;3.40;1.90;;;21.80;1.00;;;;;;7356221;19;20011;-60
2022/06/17 07:11:38;;;;;;;5.55;2.05;;;21.10;1.00;;;;;;7366249;19;20010;-60
2022/06/17 07:14:10;;;;;;;4.25;2.17;;;21.20;1.00;;;;;;7363831;19;20450;-61
2022/06/17 07:16:40;;;;;;;8.98;2.33;;;21.70;1.00;;;;;;7380446;19;20474;-60
2022/06/17 07:19:12;;;;;;;3.97;1.98;;;21.80;1.00;;;;;;7356070;19;20032;-60
2022/06/17 07:21:42;;;;;;;4.38;2.38;;;22.70;1.00;;;;;;7366435;19;20013;-60
2022/06/17 07:24:13;;;;;;;6.78;1.73;;;22.70;1.00;;;;;;7366650;19;20007;-61
2022/06/17 07:26:43;;;;;;;3.67;1.95;;;23.00;1.00;;;;;;7367183;19;20813;-61
2022/06/17 07:29:15;;;;;;;3.72;2.10;;;22.90;1.00;;;;;;7358541;19;20014;-61
2022/06/17 07:31:45;;;;;;;3.42;2.10;;;22.80;1.00;;;;;;7384462;19;20032;-61
2022/06/17 07:34:16;;;;;;;2.88;1.75;;;22.30;1.00;;;;;;7363606;19;20011;-61
2022/06/17 07:42:11;;;;;;;4.72;2.33;;;22.90;1.00;;;;;;7354181;19;20010;-61
2022/06/17 07:44:44;;;;;;;4.35;2.28;;;23.00;1.00;;;;;;7356486;19;20303;-60
2022/06/17 07:47:16;;;;;;;5.00;2.70;;;23.20;1.00;;;;;;7354668;19;20015;-61
2022/06/17 07:49:46;;;;;;;6.53;2.20;;;23.50;1.00;;;;;;7377886;19;20010;-60
2022/06/17 07:52:17;;;;;;;5.05;2.45;;;23.60;1.00;;;;;;7353297;19;20014;-60
2022/06/17 07:54:47;;;;;;;7.13;2.50;;;23.40;1.00;;;;;;7355124;19;20130;-61
2022/06/17 07:57:17;;;;;;;2.35;1.88;;;23.20;1.00;;;;;;7355304;19;20473;-61
2022/06/17 07:59:49;;;;;;;6.47;2.45;;;23.60;1.00;;;;;;7353343;19;20083;-61
2022/06/17 08:02:19;;;;;;;4.70;2.40;;;23.80;1.00;;;;;;7358306;19;20090;-61
2022/06/17 08:04:49;;;;;;;3.50;2.17;;;23.40;1.00;;;;;;7384032;19;20359;-61
2022/06/17 08:07:20;;;;;;;5.97;2.70;;;23.80;1.00;;;;;;7360653;19;20031;-60
2022/06/17 08:09:50;;;;;;;7.75;2.45;;;23.50;1.00;;;;;;7355765;19;20015;-61
2022/06/17 08:12:20;;;;;;;4.55;2.97;;;24.10;1.00;;;;;;7359401;19;20081;-60
2022/06/17 08:14:54;;;;;;;5.20;2.15;;;24.00;1.00;;;;;;7361511;19;20039;-60
2022/06/17 08:17:24;;;;;;;5.20;2.55;;;24.00;1.00;;;;;;7361468;19;20017;-61
2022/06/17 08:19:56;;;;;;;5.70;2.60;;;23.90;1.00;;;;;;7366890;19;20086;-61
2022/06/17 08:22:26;;;;;;;6.78;2.47;;;23.60;1.00;;;;;;7387091;19;20489;-60
2022/06/17 08:24:58;;;;;;;4.68;2.60;;;23.70;1.00;;;;;;7367162;19;20014;-60
2022/06/17 08:27:28;;;;;;;3.83;2.67;;;24.60;1.00;;;;;;7365768;19;20336;-61
2022/06/17 08:30:00;;;;;;;4.70;2.30;;;24.20;1.00;;;;;;7367775;19;20440;-61
2022/06/17 08:35:17;;;;;;;5.93;3.00;;;24.20;1.00;;;;;;7364431;19;20031;-61
2022/06/17 08:37:57;;;;;;;7.07;2.55;;;24.50;1.00;;;;;;7369337;19;20010;-62
2022/06/17 08:40:39;;;;;;;3.20;2.10;;;24.80;1.00;;;;;;7387894;19;20018;-62
2022/06/17 08:43:25;;;;;;;4.32;2.35;;;24.80;1.00;;;;;;7365779;19;20013;-61
2022/06/17 08:46:10;;;;;;;5.15;2.70;;;24.60;1.00;;;;;;7363652;19;20095;-61
2022/06/17 08:48:54;;;;;;;4.75;2.67;;;24.90;1.00;;;;;;7368521;19;20351;-61
2022/06/17 08:51:41;;;;;;;2.78;2.28;;;24.30;1.00;;;;;;7373873;19;20069;-61
2022/06/17 08:54:29;;;;;;;3.25;2.30;;;24.20;1.00;;;;;;7373873;19;20019;-62
2022/06/17 08:57:06;;;;;;;4.93;2.13;;;23.80;1.00;;;;;;7370146;19;20028;-61
2022/06/17 08:59:59;;;;;;;5.07;2.30;;;23.60;1.00;;;;;;7372955;19;20010;-62
2022/06/17 09:02:54;;;;;;;4.57;2.03;;;24.10;1.00;;;;;;7370655;19;20553;-61
2022/06/17 09:05:38;;;;;;;5.20;2.33;;;24.50;1.00;;;;;;7371825;19;20518;-61
2022/06/17 09:08:21;;;;;;;3.53;2.05;;;24.40;1.00;;;;;;7372862;19;20018;-62
2022/06/17 09:11:04;;;;;;;3.33;1.75;;;24.70;1.00;;;;;;7394662;19;20116;-62
2022/06/17 09:13:42;;;;;;;7.45;2.30;;;24.50;1.00;;;;;;7369898;19;20074;-61
2022/06/17 09:16:22;;;;;;;2.70;1.90;;;24.50;1.00;;;;;;7369887;19;20082;-61
2022/06/17 09:19:00;;;;;;;3.40;1.67;;;24.40;1.00;;;;;;7371731;19;20014;-61
2022/06/17 09:21:34;;;;;;;3.55;2.33;;;24.10;1.00;;;;;;7371550;19;20033;-61
2022/06/17 09:24:08;;;;;;;3.20;1.90;;;24.20;1.00;;;;;;7372424;19;20033;-61
2022/06/17 09:26:47;;;;;;;3.03;1.50;;;24.20;1.00;;;;;;7371459;19;20082;-61
2022/06/17 09:29:20;;;;;;;3.50;1.90;;;24.50;1.00;;;;;;7373809;19;20404;-61
2022/06/17 09:31:53;;;;;;;7.10;2.60;;;24.70;1.00;;;;;;7395218;19;20019;-61
2022/06/17 09:34:31;;;;;;;4.07;2.30;;;24.70;1.00;;;;;;7373272;19;20015;-61
2022/06/17 09:37:07;;;;;;;3.40;2.30;;;25.20;1.00;;;;;;7369915;19;20006;-61
2022/06/17 09:39:43;;;;;;;4.78;2.17;;;24.60;1.00;;;;;;7372629;19;20018;-61
2022/06/17 09:42:18;;;;;;;4.47;1.77;;;24.40;1.00;;;;;;7372177;19;19998;-61
2022/06/17 09:44:52;;;;;;;6.22;2.35;;;25.00;1.00;;;;;;7371153;19;20062;-61
2022/06/17 09:47:28;;;;;;;3.05;1.73;;;25.00;1.00;;;;;;7371496;19;20021;-61
2022/06/17 09:50:09;;;;;;;3.40;1.83;;;24.80;1.00;;;;;;7372263;19;20031;-61
2022/06/17 09:52:43;;;;;;;3.63;1.80;;;25.00;1.00;;;;;;7394717;19;20010;-61
2022/06/17 09:55:18;;;;;;;2.63;1.70;;;25.20;1.00;;;;;;7370882;19;20032;-62
2022/06/17 09:57:54;;;;;;;2.20;1.67;;;24.90;1.00;;;;;;7371731;19;20076;-61
2022/06/17 10:00:27;;;;;;;3.95;1.95;;;25.10;1.00;;;;;;7370539;19;20094;-61
2022/06/17 10:03:20;;;;;;;5.65;2.25;;;25.20;1.00;;;;;;7372014;19;20006;-62
2022/06/17 10:06:02;;;;;;;3.92;1.98;;;25.10;1.00;;;;;;7369064;19;20019;-62
2022/06/17 10:08:48;;;;;;;3.55;1.85;;;25.70;1.00;;;;;;7372745;19;20062;-62
2022/06/17 10:11:24;;;;;;;4.15;1.50;;;26.20;1.00;;;;;;7371770;19;20413;-62
2022/06/17 10:14:06;;;;;;;2.65;1.45;;;26.30;1.00;;;;;;7369417;19;20466;-62
2022/06/17 10:19:43;;;;;;;3.30;1.83;;;26.60;1.00;;;;;;7372698;19;20021;-62
2022/06/17 10:22:32;;;;;;;2.92;1.92;;;25.70;1.00;;;;;;7370441;19;20094;-61
2022/06/17 10:25:12;;;;;;;4.68;1.80;;;25.10;1.00;;;;;;7370619;19;20380;-61
2022/06/17 10:28:00;;;;;;;2.53;1.73;;;25.70;1.00;;;;;;7370262;19;20006;-61
2022/06/17 10:30:39;;;;;;;3.60;2.00;;;26.10;1.00;;;;;;7371171;19;20131;-61
2022/06/17 10:33:13;;;;;;;3.28;1.70;;;25.70;1.00;;;;;;7369179;19;20043;-60
2022/06/17 10:35:46;;;;;;;3.75;1.80;;;25.70;1.00;;;;;;7370184;19;20010;-62
2022/06/17 10:38:22;;;;;;;2.83;1.73;;;25.80;1.00;;;;;;7370220;19;20082;-61
2022/06/17 10:40:52;;;;;;;2.00;1.67;;;25.30;1.00;;;;;;7386695;19;20024;-62
2022/06/17 10:43:26;;;;;;;3.45;1.80;;;25.80;1.00;;;;;;7392170;19;20041;-62
2022/06/17 10:45:56;;;;;;;2.47;1.55;;;26.20;1.00;;;;;;7369140;19;20025;-61
2022/06/17 10:48:34;;;;;;;2.25;1.30;;;26.20;1.00;;;;;;7370779;19;20096;-61
2022/06/17 10:51:06;;;;;;;2.55;1.60;;;26.20;1.00;;;;;;7369791;19;20126;-61
2022/06/17 10:53:46;;;;;;;3.22;1.58;;;25.40;1.00;;;;;;7369426;19;20018;-62
2022/06/17 10:56:22;;;;;;;3.15;1.60;;;26.10;1.00;;;;;;7369043;19;20015;-61
2022/06/17 10:59:04;;;;;;;1.60;1.48;;;26.20;1.00;;;;;;7390699;19;20039;-61
2022/06/17 11:01:56;;;;;;;2.38;1.65;;;26.50;1.00;;;;;;7370839;19;20007;-61
2022/06/17 11:04:29;;;;;;;2.78;1.63;;;26.40;1.00;;;;;;7370369;19;20469;-60
2022/06/17 11:07:04;;;;;;;11.38;1.73;;;26.50;1.00;;;;;;7367628;19;20090;-61
2022/06/17 11:09:41;;;;;;;1.60;1.15;;;26.20;1.00;;;;;;7370831;19;20006;-61
2022/06/17 11:12:21;;;;;;;3.42;1.95;;;26.30;1.00;;;;;;7367807;19;20034;-61
2022/06/17 11:14:55;;;;;;;1.50;1.40;;;26.80;1.00;;;;;;7368818;19;20014;-62
2022/06/17 11:17:34;;;;;;;4.20;1.40;;;26.50;1.00;;;;;;7367691;19;20021;-61
2022/06/17 11:20:07;;;;;;;2.28;1.52;;;26.70;1.00;;;;;;7367769;19;20014;-61
2022/06/17 11:22:59;;;;;;;2.70;1.40;;;26.40;1.00;;;;;;7367203;19;20026;-61
2022/06/17 11:25:38;;;;;;;6.75;1.40;;;26.40;1.00;;;;;;7389784;19;20467;-61
2022/06/17 11:28:14;;;;;;;2.22;1.45;;;26.40;1.00;;;;;;7367570;19;20006;-61
2022/06/17 11:30:54;;;;;;;1.27;1.05;;;26.80;1.00;;;;;;7368062;19;20014;-62
2022/06/17 11:33:26;;;;;;;2.35;1.33;;;27.10;1.00;;;;;;7366351;19;20014;-61
2022/06/17 11:36:03;;;;;;;6.97;1.48;;;27.30;1.00;;;;;;7364714;19;20017;-61
2022/06/17 11:38:35;;;;;;;1.65;1.42;;;27.50;1.00;;;;;;7367248;19;20474;-62
2022/06/17 11:41:26;;;;;;;3.58;1.40;;;27.60;1.00;;;;;;7368452;19;20006;-62
2022/06/17 11:43:58;;;;;;;3.72;1.40;;;27.30;1.00;;;;;;7368224;19;20025;-62
2022/06/17 11:46:32;;;;;;;1.40;1.30;;;27.30;1.00;;;;;;7387803;19;20035;-62
2022/06/17 11:49:10;;;;;;;1.52;1.30;;;27.10;1.00;;;;;;7366409;19;20014;-62
2022/06/17 11:51:43;;;;;;;1.65;1.13;;;27.10;1.00;;;;;;7367706;19;20018;-61
2022/06/17 11:54:22;;;;;;;6.40;1.40;;;27.30;1.00;;;;;;7367467;19;20376;-61
2022/06/17 11:56:55;;;;;;;6.85;1.23;;;27.00;1.00;;;;;;7365054;19;20022;-62
2022/06/17 11:59:28;;;;;;;3.00;1.25;;;27.00;1.00;;;;;;7368563;19;20332;-62
2022/06/17 12:02:06;;;;;;;2.85;1.17;;;27.10;1.00;;;;;;7366270;19;20470;-62
2022/06/17 12:04:42;;;;;;;2.95;1.30;;;27.30;1.00;;;;;;7389111;19;20015;-61
2022/06/17 12:07:38;;;;;;;1.75;1.27;;;27.30;1.00;;;;;;7364506;19;20097;-60
2022/06/17 12:10:19;;;;;;;1.50;1.15;;;27.30;1.00;;;;;;7365789;19;20029;-62
2022/06/17 12:12:55;;;;;;;2.67;1.10;;;27.30;1.00;;;;;;7365477;19;20019;-62
2022/06/17 12:15:31;;;;;;;5.10;1.30;;;27.30;1.00;;;;;;7364299;19;20015;-62
2022/06/17 12:18:04;;;;;;;2.88;1.20;;;27.90;1.00;;;;;;7366279;19;20014;-60
2022/06/17 12:20:46;;;;;;;1.73;1.40;;;27.70;1.00;;;;;;7366736;19;20473;-61
2022/06/17 12:23:21;;;;;;;2.67;1.50;;;27.60;1.00;;;;;;7367918;19;20028;-61
2022/06/17 12:25:59;;;;;;;1.83;1.10;;;27.50;1.00;;;;;;7396690;19;20018;-62
2022/06/17 12:28:38;;;;;;;1.83;0.88;;;27.50;1.00;;;;;;7374707;19;20021;-61
2022/06/17 12:31:15;;;;;;;1.15;0.80;;;27.50;1.00;;;;;;7375657;19;20402;-61
2022/06/17 12:33:53;;;;;;;2.08;1.02;;;27.40;1.00;;;;;;7373717;19;20405;-61
2022/06/17 12:36:28;;;;;;;1.63;0.98;;;27.70;1.00;;;;;;7373261;19;20003;-62
2022/06/17 12:39:01;;;;;;;2.25;0.90;;;27.70;1.00;;;;;;7374356;19;20006;-62
2022/06/17 12:41:38;;;;;;;1.08;0.80;;;27.70;1.00;;;;;;7375449;19;20014;-62
2022/06/17 12:44:23;;;;;;;0.95;0.85;;;27.90;1.00;;;;;;7374694;19;20096;-62
2022/06/17 12:47:05;;;;;;;2.35;1.02;;;28.10;1.00;;;;;;7383074;19;20519;-63
2022/06/17 12:55:27;;;;;;;2.35;0.90;;;27.70;1.00;;;;;;7371862;19;20070;-62
2022/06/17 12:58:07;;;;;;;2.47;1.10;;;28.20;1.00;;;;;;7372764;19;20013;-62
2022/06/17 13:00:44;;;;;;;3.20;1.23;;;28.20;1.00;;;;;;7374489;19;20529;-62
2022/06/17 13:03:48;;;;;;;3.83;0.90;;;28.30;1.00;;;;;;7374355;19;20039;-62
2022/06/17 13:06:28;;;;;;;2.70;0.90;;;28.40;1.00;;;;;;7371135;19;20070;-62
2022/06/17 13:09:07;;;;;;;1.67;1.10;;;28.40;1.00;;;;;;7374041;19;20028;-61
2022/06/17 13:11:44;;;;;;;1.02;0.93;;;28.20;1.00;;;;;;7374218;19;20037;-62
2022/06/17 13:14:26;;;;;;;2.28;1.30;;;28.30;1.00;;;;;;7373216;19;20010;-62
2022/06/17 13:17:05;;;;;;;2.40;1.08;;;28.10;1.00;;;;;;7371748;19;20033;-62
2022/06/17 13:19:41;;;;;;;2.25;1.23;;;27.90;1.00;;;;;;7393473;19;20014;-62
2022/06/17 13:22:20;;;;;;;3.13;1.27;;;28.30;1.00;;;;;;7373697;19;20014;-62
2022/06/17 13:24:57;;;;;;;2.20;1.10;;;28.00;1.00;;;;;;7372769;19;20014;-64
2022/06/17 13:27:35;;;;;;;1.67;0.93;;;28.10;1.00;;;;;;7372693;19;20470;-62
2022/06/17 13:30:09;;;;;;;1.75;0.93;;;28.40;1.00;;;;;;7372968;19;20014;-62
2022/06/17 13:32:46;;;;;;;1.85;1.02;;;27.60;1.00;;;;;;7373639;19;20536;-62
2022/06/17 13:35:21;;;;;;;2.03;1.00;;;27.60;1.00;;;;;;7369151;19;20011;-62
2022/06/17 13:37:55;;;;;;;2.08;1.10;;;28.30;1.00;;;;;;7394018;19;20011;-63
2022/06/17 13:40:29;;;;;;;1.92;1.10;;;28.50;1.00;;;;;;7371946;19;20083;-63
2022/06/17 13:43:06;;;;;;;1.95;1.02;;;28.60;1.00;;;;;;7372705;19;20022;-62
2022/06/17 13:45:44;;;;;;;2.78;1.02;;;28.00;1.00;;;;;;7372051;19;20018;-62
2022/06/17 13:48:26;;;;;;;2.38;0.95;;;28.30;1.00;;;;;;7370677;19;20143;-63
2022/06/17 13:51:04;;;;;;;2.85;0.93;;;28.00;1.00;;;;;;7371125;19;20006;-62
2022/06/17 13:53:51;;;;;;;3.70;1.02;;;28.40;1.00;;;;;;7372700;19;20431;-63